Time;durP1;ratioP1;P1;durP2;ratioP2;P2;SDS_P1;SDS_P2;PMS_P1;PMS_P2;Temp;Humidity;BMP_temperature;BMP_pressure;BME280_temperature;BME280_humidity;BME280_pressure;Samples;Min_cycle;Max_cycle;Signal;HPM_P1;HPM_P2
2021/01/29 00:02:53;;;;;;;34.40;21.00;;;;;;;1.00;50.30;93078.81;5000071;23;20083;-82
2021/01/29 00:05:21;;;;;;;33.67;20.15;;;;;;;1.16;50.45;93083.13;5013121;28;20053;-82
2021/01/29 00:07:49;;;;;;;24.27;16.50;;;;;;;1.35;50.59;93138.19;5009421;28;20017;-82
2021/01/29 00:10:16;;;;;;;30.98;18.25;;;;;;;1.20;50.42;93099.81;5018086;28;20105;-82
2021/01/29 00:12:42;;;;;;;26.05;17.27;;;;;;;1.12;50.10;93089.88;4983919;28;20049;-82
2021/01/29 00:15:12;;;;;;;27.10;15.98;;;;;;;1.28;49.96;93133.97;5012897;28;20513;-82
2021/01/29 00:17:39;;;;;;;27.52;16.77;;;;;;;1.33;50.63;93114.22;5015472;28;20042;-81
2021/01/29 00:20:07;;;;;;;26.95;16.63;;;;;;;1.33;50.42;93138.44;5012193;28;20498;-83
2021/01/29 00:22:33;;;;;;;31.50;19.15;;;;;;;1.37;51.04;93141.34;5029621;28;20032;-82
2021/01/29 00:24:59;;;;;;;31.00;17.92;;;;;;;1.37;50.91;93156.97;5017111;28;20046;-82
2021/01/29 00:27:24;;;;;;;36.60;23.48;;;;;;;1.02;50.40;93074.16;5015184;28;20494;-81
2021/01/29 00:29:50;;;;;;;39.50;21.52;;;;;;;1.30;50.47;93134.53;5016277;28;20053;-81
2021/01/29 00:32:15;;;;;;;26.60;16.13;;;;;;;1.27;50.26;93142.81;5032565;28;20040;-82
2021/01/29 00:34:41;;;;;;;29.15;18.25;;;;;;;1.23;50.72;93133.94;5036876;28;20029;-82
2021/01/29 00:37:07;;;;;;;26.77;16.70;;;;;;;1.34;50.24;93144.44;5037082;28;20498;-82
2021/01/29 00:39:32;;;;;;;29.08;16.33;;;;;;;1.24;50.06;93148.50;5038100;28;20140;-82
2021/01/29 00:42:00;;;;;;;30.83;16.52;;;;;;;1.23;50.77;93154.75;5033234;28;20047;-82
2021/01/29 00:44:26;;;;;;;29.88;16.75;;;;;;;1.25;50.41;93142.28;5038049;28;20041;-81
2021/01/29 00:46:51;;;;;;;30.40;16.25;;;;;;;1.35;50.55;93153.81;5033568;28;20032;-81
2021/01/29 00:49:19;;;;;;;28.48;18.40;;;;;;;1.37;50.51;93141.34;5040794;28;20032;-82
2021/01/29 00:51:45;;;;;;;30.77;15.73;;;;;;;1.39;50.71;93144.47;5034713;28;20533;-82
2021/01/29 00:54:10;;;;;;;26.77;17.00;;;;;;;1.38;50.51;93127.28;5033932;28;20045;-81
2021/01/29 00:56:35;;;;;;;26.02;17.00;;;;;;;1.49;50.63;93160.19;5033327;28;20436;-80
2021/01/29 00:59:01;;;;;;;28.65;17.20;;;;;;;1.53;50.72;93136.00;5034956;28;20107;-82
2021/01/29 01:01:29;;;;;;;29.02;18.45;;;;;;;1.45;50.09;93120.06;5037424;28;20049;-82
2021/01/29 01:03:55;;;;;;;24.83;16.08;;;;;;;1.48;50.87;93153.38;5048190;28;20036;-82
2021/01/29 01:06:22;;;;;;;26.73;15.50;;;;;;;1.51;50.66;93158.91;5035177;28;20041;-82
2021/01/29 01:08:48;;;;;;;26.10;16.23;;;;;;;1.50;50.27;93135.72;5033127;28;20039;-82
2021/01/29 01:11:13;;;;;;;26.23;15.45;;;;;;;1.43;50.62;93135.91;5036021;28;20053;-84
2021/01/29 01:13:44;;;;;;;24.92;14.18;;;;;;;1.49;50.75;93149.75;5034735;28;20028;-81
2021/01/29 01:16:10;;;;;;;24.08;14.63;;;;;;;1.48;50.42;93135.94;5036426;28;20087;-82
2021/01/29 01:18:38;;;;;;;26.05;15.27;;;;;;;1.50;50.45;93140.94;5023488;28;20040;-82
2021/01/29 01:21:04;;;;;;;27.02;14.70;;;;;;;1.47;50.91;93112.75;5034525;28;20441;-82
2021/01/29 01:23:30;;;;;;;27.38;17.25;;;;;;;1.32;50.85;93090.00;5035183;28;20120;-82
2021/01/29 01:25:55;;;;;;;24.90;14.70;;;;;;;1.51;50.55;93116.47;5034679;28;20028;-82
2021/01/29 01:28:28;;;;;;;22.25;14.27;;;;;;;1.55;50.86;93091.50;5036547;28;20086;-81
2021/01/29 01:30:56;;;;;;;24.65;15.85;;;;;;;1.70;50.67;93110.63;5032394;28;20510;-82
2021/01/29 01:33:22;;;;;;;24.50;16.13;;;;;;;1.74;50.42;93092.66;5030643;28;20219;-82
2021/01/29 01:35:47;;;;;;;22.73;13.77;;;;;;;1.83;50.70;93091.16;5034502;28;20131;-83
2021/01/29 01:38:12;;;;;;;21.33;14.27;;;;;;;1.75;50.43;93065.59;5034876;28;20044;-83
2021/01/29 01:40:41;;;;;;;31.88;16.35;;;;;;;1.89;50.16;93086.75;5037840;28;20401;-83
2021/01/29 01:43:07;;;;;;;23.20;15.20;;;;;;;1.87;50.19;93081.78;5011647;28;20032;-83
2021/01/29 01:45:32;;;;;;;20.45;12.85;;;;;;;1.85;50.17;93078.66;5034500;28;20078;-83
2021/01/29 01:48:07;;;;;;;23.08;14.07;;;;;;;1.90;50.30;93088.31;5032763;28;20128;-82
2021/01/29 01:50:46;;;;;;;25.08;15.27;;;;;;;1.68;50.33;93071.00;5035655;28;20032;-83
2021/01/29 01:53:20;;;;;;;26.55;15.70;;;;;;;1.77;50.55;93063.50;5022586;28;20044;-82
2021/01/29 01:55:49;;;;;;;20.13;13.52;;;;;;;1.79;50.54;93065.84;5045999;28;20013;-83
2021/01/29 01:58:15;;;;;;;22.13;14.20;;;;;;;1.68;50.79;93060.59;5030232;28;20432;-82
2021/01/29 02:00:41;;;;;;;25.05;15.15;;;;;;;1.79;50.47;93066.63;5049839;28;20040;-83
2021/01/29 02:03:16;;;;;;;27.55;14.85;;;;;;;1.76;50.79;93087.22;5027963;28;20041;-83
2021/01/29 02:05:45;;;;;;;24.08;14.27;;;;;;;1.84;51.47;93078.91;5032545;28;20416;-83
2021/01/29 02:08:17;;;;;;;24.92;16.52;;;;;;;1.89;51.93;93077.13;5031916;28;20063;-83
2021/01/29 02:10:43;;;;;;;20.80;13.25;;;;;;;1.87;50.88;93073.19;5030805;28;20025;-83
2021/01/29 02:13:09;;;;;;;21.58;15.32;;;;;;;1.94;50.77;93074.53;5034493;28;20020;-82
2021/01/29 02:15:38;;;;;;;22.27;13.95;;;;;;;1.91;50.26;93064.59;5030778;28;20797;-82
2021/01/29 02:18:25;;;;;;;23.30;14.70;;;;;;;2.05;50.36;93060.50;5034308;28;20029;-82
2021/01/29 02:20:53;;;;;;;20.77;14.48;;;;;;;2.10;50.52;93078.00;5035106;28;20086;-83
2021/01/29 02:23:50;;;;;;;25.60;14.32;;;;;;;2.18;50.58;93062.66;5031241;28;20045;-82
2021/01/29 02:26:34;;;;;;;22.70;13.95;;;;;;;2.10;50.20;93057.91;5033703;28;20412;-82
2021/01/29 02:29:02;;;;;;;19.25;13.65;;;;;;;2.17;50.39;93065.53;5021757;28;20041;-82
2021/01/29 02:31:52;;;;;;;24.10;13.10;;;;;;;2.15;50.45;93059.78;5033411;28;20037;-83
2021/01/29 02:34:36;;;;;;;17.50;12.70;;;;;;;2.23;50.31;93055.91;5034196;28;20041;-82
2021/01/29 02:37:11;;;;;;;21.27;13.13;;;;;;;2.30;50.10;93069.50;5030478;28;20430;-82
2021/01/29 02:39:36;;;;;;;19.70;12.80;;;;;;;2.24;50.25;93052.25;5028396;28;20041;-83
2021/01/29 02:42:20;;;;;;;20.50;13.00;;;;;;;2.21;50.08;93052.75;5036152;28;20098;-82
2021/01/29 02:45:03;;;;;;;22.48;13.40;;;;;;;2.10;50.15;93042.28;5046961;28;20049;-82
2021/01/29 02:47:35;;;;;;;19.20;12.25;;;;;;;1.97;50.04;93015.91;5033721;28;20029;-82
2021/01/29 02:50:28;;;;;;;22.63;12.52;;;;;;;2.20;50.53;93048.59;5028671;28;20063;-82
2021/01/29 02:53:11;;;;;;;20.27;12.50;;;;;;;2.05;51.30;93044.88;5035539;28;20039;-82
2021/01/29 02:55:56;;;;;;;21.42;14.02;;;;;;;1.97;50.99;93045.38;5034557;28;20484;-82
2021/01/29 02:58:30;;;;;;;;;;;;;;;1.99;50.74;93045.91;5036227;28;20045;-82
2021/01/29 03:01:01;;;;;;;23.13;13.18;;;;;;;1.94;51.13;93035.47;5033989;28;19920;-81
2021/01/29 03:04:06;;;;;;;20.40;13.02;;;;;;;2.02;51.39;93029.75;5028515;28;20037;-81
2021/01/29 03:06:48;;;;;;;23.75;14.15;;;;;;;2.03;51.18;93020.13;5037634;28;20052;-81
2021/01/29 03:09:23;;;;;;;22.85;13.05;;;;;;;2.08;51.05;93018.31;5028526;28;20634;-81
2021/01/29 03:12:05;;;;;;;21.92;13.85;;;;;;;2.03;51.11;93013.09;5033450;28;20108;-81
2021/01/29 03:14:39;;;;;;;26.58;13.93;;;;;;;2.04;50.74;93017.25;5034140;28;20068;-82
2021/01/29 03:17:13;;;;;;;20.35;13.20;;;;;;;1.93;50.58;93013.03;5031232;28;20045;-82
2021/01/29 03:19:57;;;;;;;23.48;12.82;;;;;;;1.91;50.71;93022.91;5031765;28;20032;-81
2021/01/29 03:22:26;;;;;;;25.33;13.82;;;;;;;1.96;51.00;93033.38;5033420;28;20455;-82
2021/01/29 03:24:58;;;;;;;25.23;12.98;;;;;;;1.94;50.81;93021.66;5029046;28;20057;-81
2021/01/29 03:27:38;;;;;;;25.55;13.38;;;;;;;2.03;50.71;93025.31;5046553;28;20063;-82
2021/01/29 03:30:21;;;;;;;22.30;13.98;;;;;;;2.01;50.40;93017.75;5031576;28;20040;-82
2021/01/29 03:32:49;;;;;;;19.20;12.65;;;;;;;2.11;50.46;93011.78;5032716;28;20053;-82
2021/01/29 03:35:34;;;;;;;19.33;12.88;;;;;;;1.98;50.62;92992.22;5030068;28;20041;-82
2021/01/29 03:38:17;;;;;;;22.52;15.05;;;;;;;2.07;50.42;93003.72;5034110;28;20109;-81
2021/01/29 03:40:46;;;;;;;21.77;12.57;;;;;;;1.97;50.44;93001.06;5043357;28;20067;-82
2021/01/29 03:43:21;;;;;;;22.23;13.20;;;;;;;2.01;50.68;93007.34;5034041;28;20119;-82
2021/01/29 03:46:00;;;;;;;25.95;13.02;;;;;;;1.97;50.79;93001.06;5031800;28;20126;-81
2021/01/29 03:49:17;;;;;;;45.78;15.75;;;;;;;1.96;50.78;92999.50;5050440;28;20075;-82
2021/01/29 03:52:07;;;;;;;29.13;14.32;;;;;;;2.00;50.79;93018.81;5020298;28;20103;-82
2021/01/29 03:55:04;;;;;;;21.98;14.02;;;;;;;1.94;50.80;93006.00;5035683;28;20033;-82
2021/01/29 03:58:12;;;;;;;23.17;15.32;;;;;;;1.96;51.10;93007.31;5034652;28;20071;-82
2021/01/29 04:00:56;;;;;;;24.15;13.93;;;;;;;1.96;51.49;93015.13;5039345;28;20075;-81
2021/01/29 04:03:42;;;;;;;23.40;14.32;;;;;;;1.81;51.66;93015.06;5010139;28;20053;-82
2021/01/29 04:06:24;;;;;;;22.90;15.00;;;;;;;1.80;51.93;93010.91;5028184;28;20540;-83
2021/01/29 04:09:28;;;;;;;22.05;13.48;;;;;;;1.81;51.73;93015.06;5037422;28;20040;-81
2021/01/29 04:11:59;;;;;;;23.60;15.30;;;;;;;1.80;51.85;92995.28;5025818;28;20127;-81
2021/01/29 04:14:43;;;;;;;23.38;14.25;;;;;;;1.86;52.34;92994.25;5033636;28;20040;-82
2021/01/29 04:17:32;;;;;;;26.63;14.48;;;;;;;1.76;52.29;92994.19;5020712;28;20048;-82
2021/01/29 04:20:11;;;;;;;20.92;14.38;;;;;;;1.88;52.36;93007.81;5034071;28;20111;-82
2021/01/29 04:22:41;;;;;;;21.65;14.65;;;;;;;2.03;52.15;93018.28;5036630;28;20017;-83
2021/01/29 04:25:13;;;;;;;27.92;15.38;;;;;;;2.00;52.35;93005.78;5034979;28;20036;-82
2021/01/29 04:27:42;;;;;;;24.55;15.70;;;;;;;2.15;53.01;93024.06;5036078;28;20501;-82
2021/01/29 04:30:10;;;;;;;27.45;16.33;;;;;;;2.07;53.14;93003.72;5035435;28;20112;-83
2021/01/29 04:32:42;;;;;;;25.58;14.75;;;;;;;2.04;53.48;93000.84;5035378;28;20053;-83
2021/01/29 04:35:10;;;;;;;24.55;13.75;;;;;;;2.06;53.20;92993.53;5034007;28;20033;-83
2021/01/29 04:37:42;;;;;;;21.77;14.27;;;;;;;2.08;53.03;93013.09;5035179;28;20481;-82
2021/01/29 04:40:29;;;;;;;20.80;14.63;;;;;;;2.11;53.20;92983.13;5017685;28;20042;-82
2021/01/29 04:43:30;;;;;;;25.92;15.48;;;;;;;2.22;53.08;93013.41;5016396;28;20054;-83
2021/01/29 04:46:17;;;;;;;20.98;13.30;;;;;;;2.16;53.42;93017.81;5012152;28;20071;-83
2021/01/29 04:48:53;;;;;;;27.20;14.52;;;;;;;2.21;53.50;93024.09;5013418;28;20131;-82
2021/01/29 04:51:37;;;;;;;26.88;14.88;;;;;;;2.29;53.15;93034.03;5015147;28;20391;-83
2021/01/29 04:54:30;;;;;;;31.83;16.38;;;;;;;2.34;52.96;93023.63;5015474;28;20072;-83
2021/01/29 04:57:18;;;;;;;27.35;16.00;;;;;;;2.33;52.15;93040.28;5016086;28;20176;-83
2021/01/29 05:00:29;;;;;;;26.50;14.48;;;;;;;2.21;52.36;93032.69;5013479;28;20700;-83
2021/01/29 05:03:09;;;;;;;27.90;16.60;;;;;;;2.22;53.35;93028.25;5001916;28;20458;-83
2021/01/29 05:05:41;;;;;;;20.67;14.38;;;;;;;2.24;52.57;93008.75;5012006;28;20073;-82
2021/01/29 05:08:32;;;;;;;22.45;14.68;;;;;;;2.17;52.84;93001.16;5015822;28;20034;-81
2021/01/29 05:11:03;;;;;;;19.65;12.23;;;;;;;2.10;52.96;93010.25;5010725;28;20086;-83
2021/01/29 05:13:31;;;;;;;20.50;12.18;;;;;;;2.06;53.04;93002.13;5016338;28;20113;-82
2021/01/29 05:16:34;;;;;;;21.48;13.27;;;;;;;2.10;52.45;93000.59;5010605;28;20091;-83
2021/01/29 05:19:04;;;;;;;20.73;12.73;;;;;;;2.14;52.83;93000.88;5015864;28;20160;-82
2021/01/29 05:21:57;;;;;;;23.25;12.90;;;;;;;2.13;52.96;93000.09;5029236;28;20042;-84
2021/01/29 05:24:39;;;;;;;22.75;14.15;;;;;;;2.02;52.06;92982.84;5012777;28;20061;-83
2021/01/29 05:27:42;;;;;;;22.00;13.18;;;;;;;2.13;52.81;93020.94;5012598;28;20038;-82
2021/01/29 05:30:34;;;;;;;19.10;12.38;;;;;;;2.13;53.02;93039.19;5016644;28;20044;-81
2021/01/29 05:33:17;;;;;;;18.15;11.20;;;;;;;2.09;53.12;93048.56;5010403;28;20041;-81
2021/01/29 05:36:08;;;;;;;17.95;11.48;;;;;;;1.90;53.12;93023.97;5016186;28;20132;-81
2021/01/29 05:38:59;;;;;;;18.42;12.65;;;;;;;2.04;53.55;93047.75;5013578;28;20045;-81
2021/01/29 05:41:42;;;;;;;20.13;12.80;;;;;;;2.08;53.86;93033.97;5014398;28;20688;-80
2021/01/29 05:44:28;;;;;;;22.00;12.90;;;;;;;2.16;54.11;93040.50;5010709;28;20037;-82
2021/01/29 05:47:04;;;;;;;;;;;;;;;2.18;54.32;93028.78;5007419;28;20053;-83
2021/01/29 05:50:11;;;;;;;20.17;13.77;;;;;;;2.21;54.44;93031.91;5014247;28;19913;-83
2021/01/29 05:52:52;;;;;;;23.10;15.18;;;;;;;2.18;54.84;93028.78;5002840;28;20049;-83
2021/01/29 05:55:42;;;;;;;21.35;12.70;;;;;;;2.14;55.48;93059.00;5029591;28;20079;-83
2021/01/29 05:58:20;;;;;;;18.13;12.63;;;;;;;2.25;55.74;93044.16;5016796;28;20042;-82
2021/01/29 06:01:16;;;;;;;24.85;13.60;;;;;;;2.35;55.56;93056.44;5011843;28;20967;-83
2021/01/29 06:04:00;;;;;;;26.92;18.35;;;;;;;2.18;55.39;93054.84;5016145;28;20037;-82
2021/01/29 06:06:44;;;;;;;27.08;16.08;;;;;;;2.23;55.72;93061.13;5009165;28;20650;-80
2021/01/29 06:09:28;;;;;;;28.73;16.23;;;;;;;2.32;55.68;93075.22;5008530;28;20033;-81
2021/01/29 06:12:21;;;;;;;30.02;16.98;;;;;;;2.29;55.50;93049.69;5011388;28;20056;-82
2021/01/29 06:15:27;;;;;;;31.05;17.02;;;;;;;2.25;55.89;93075.44;5027212;28;20054;-81
2021/01/29 06:18:11;;;;;;;26.30;15.73;;;;;;;2.35;56.22;93054.63;5014237;28;20034;-82
2021/01/29 06:20:46;;;;;;;29.70;19.53;;;;;;;2.44;56.43;93063.56;5031016;28;20349;-82
2021/01/29 06:23:40;;;;;;;29.80;17.70;;;;;;;2.49;55.41;93021.06;5010872;28;20598;-80
2021/01/29 06:26:18;;;;;;;30.35;16.45;;;;;;;2.56;55.54;93050.28;5014915;28;20061;-82
2021/01/29 06:29:05;;;;;;;24.42;16.08;;;;;;;2.63;54.88;93045.59;5018785;28;20061;-83
2021/01/29 06:32:01;;;;;;;30.30;19.70;;;;;;;2.77;56.26;93066.75;5029163;28;20108;-83
2021/01/29 06:34:48;;;;;;;27.02;19.10;;;;;;;2.80;55.92;93082.66;5013923;28;20044;-82
2021/01/29 06:38:01;;;;;;;34.17;20.42;;;;;;;3.07;55.32;93064.19;5015769;28;20711;-82
2021/01/29 06:40:32;;;;;;;35.70;20.20;;;;;;;3.06;54.54;93065.22;4982891;28;20379;-82
2021/01/29 06:43:05;;;;;;;27.30;18.58;;;;;;;3.11;55.10;93072.28;5015748;28;20169;-82
2021/01/29 06:46:00;;;;;;;24.48;16.17;;;;;;;3.23;54.12;93076.19;5010650;28;20501;-83
2021/01/29 06:48:48;;;;;;;21.10;12.65;;;;;;;3.34;53.65;93061.31;5002670;28;20094;-88
2021/01/29 06:51:48;;;;;;;20.77;14.00;;;;;;;3.39;53.55;93077.00;5023184;28;20092;-84
2021/01/29 06:54:36;;;;;;;22.38;15.48;;;;;;;3.21;53.59;93051.41;4992707;28;20036;-83
2021/01/29 06:57:23;;;;;;;22.10;12.38;;;;;;;3.56;53.33;93063.69;5014617;28;20045;-82
2021/01/29 06:59:57;;;;;;;19.80;12.52;;;;;;;3.69;53.42;93069.13;5016246;28;20033;-82
2021/01/29 07:02:23;;;;;;;24.35;14.52;;;;;;;3.80;53.46;93086.38;5012003;28;20049;-83
2021/01/29 07:05:06;;;;;;;28.70;14.48;;;;;;;3.82;52.51;93068.59;5003859;28;20030;-84
2021/01/29 07:07:37;;;;;;;19.83;14.55;;;;;;;3.93;52.13;93085.81;5014802;28;20032;-84
2021/01/29 07:10:21;;;;;;;27.60;13.25;;;;;;;4.01;52.04;93075.88;5012988;28;20072;-84
2021/01/29 07:13:10;;;;;;;16.55;12.48;;;;;;;4.20;51.47;93087.34;5012267;28;20116;-83
2021/01/29 07:16:04;;;;;;;53.67;25.80;;;;;;;4.20;52.25;93110.88;5011981;28;20041;-85
2021/01/29 07:18:56;;;;;;;29.05;15.43;;;;;;;4.29;51.45;93072.66;5005255;28;20041;-83
2021/01/29 07:21:44;;;;;;;19.70;13.82;;;;;;;4.11;51.66;93034.00;5009464;28;20718;-82
2021/01/29 07:24:46;;;;;;;25.25;18.23;;;;;;;4.25;51.96;93095.16;5007920;28;20042;-82
2021/01/29 07:27:34;;;;;;;28.02;16.90;;;;;;;4.25;51.73;93063.78;5012345;28;20494;-80
2021/01/29 07:30:29;;;;;;;29.95;15.90;;;;;;;4.31;51.67;93081.00;5012455;28;20047;-79
2021/01/29 07:33:11;;;;;;;29.98;16.48;;;;;;;4.41;51.61;93095.88;4992528;28;20057;-79
2021/01/29 07:35:40;;;;;;;27.00;17.83;;;;;;;4.46;50.70;93088.81;5026600;28;20497;-83
2021/01/29 07:38:18;;;;;;;25.25;17.02;;;;;;;4.54;51.12;93111.81;5009197;28;20123;-80
2021/01/29 07:40:55;;;;;;;28.02;17.95;;;;;;;4.57;50.77;93095.56;5008579;28;20033;-84
2021/01/29 07:43:48;;;;;;;23.23;14.60;;;;;;;4.52;50.63;93082.50;5014935;28;20076;-84
2021/01/29 07:46:32;;;;;;;22.92;13.88;;;;;;;4.39;51.22;93061.38;5012919;28;20033;-82
2021/01/29 07:49:35;;;;;;;23.50;15.13;;;;;;;4.45;50.74;93071.53;5009831;28;20403;-83
2021/01/29 07:52:15;;;;;;;19.90;13.57;;;;;;;4.36;50.96;93078.38;5009432;28;20048;-84
